sensor_id;sensor_type;location;lat;lon;timestamp;P1;durP1;ratioP1;P2;durP2;ratioP2
73150;SDS011;61354;50.758;6.106;2022-11-20T00:02:09;18.50;;;8.95;;
73150;SDS011;61354;50.758;6.106;2022-11-20T00:04:35;17.02;;;8.43;;
73150;SDS011;61354;50.758;6.106;2022-11-20T00:07:00;17.80;;;8.27;;
73150;SDS011;61354;50.758;6.106;2022-11-20T00:09:26;17.50;;;9.02;;
73150;SDS011;61354;50.758;6.106;2022-11-20T00:11:51;18.98;;;8.82;;
73150;SDS011;61354;50.758;6.106;2022-11-20T00:14:17;18.85;;;9.02;;
73150;SDS011;61354;50.758;6.106;2022-11-20T00:16:42;19.45;;;8.73;;
73150;SDS011;61354;50.758;6.106;2022-11-20T00:19:08;18.70;;;8.48;;
73150;SDS011;61354;50.758;6.106;2022-11-20T00:21:34;17.30;;;8.73;;
73150;SDS011;61354;50.758;6.106;2022-11-20T00:23:59;16.52;;;8.55;;
73150;SDS011;61354;50.758;6.106;2022-11-20T00:26:25;15.15;;;7.68;;
73150;SDS011;61354;50.758;6.106;2022-11-20T00:28:53;15.68;;;8.30;;
73150;SDS011;61354;50.758;6.106;2022-11-20T00:31:23;17.33;;;7.50;;
73150;SDS011;61354;50.758;6.106;2022-11-20T00:33:49;17.00;;;8.23;;
73150;SDS011;61354;50.758;6.106;2022-11-20T00:36:15;19.95;;;8.82;;
73150;SDS011;61354;50.758;6.106;2022-11-20T00:38:42;17.60;;;8.65;;
73150;SDS011;61354;50.758;6.106;2022-11-20T00:41:09;14.63;;;7.60;;
73150;SDS011;61354;50.758;6.106;2022-11-20T00:43:36;17.80;;;8.90;;
73150;SDS011;61354;50.758;6.106;2022-11-20T00:46:03;21.27;;;9.07;;
73150;SDS011;61354;50.758;6.106;2022-11-20T00:48:30;17.65;;;7.75;;
73150;SDS011;61354;50.758;6.106;2022-11-20T00:50:56;19.98;;;8.43;;
73150;SDS011;61354;50.758;6.106;2022-11-20T00:53:22;17.75;;;8.57;;
73150;SDS011;61354;50.758;6.106;2022-11-20T00:58:20;18.00;;;8.68;;
73150;SDS011;61354;50.758;6.106;2022-11-20T01:00:45;16.83;;;8.02;;
73150;SDS011;61354;50.758;6.106;2022-11-20T01:03:11;17.63;;;8.73;;
73150;SDS011;61354;50.758;6.106;2022-11-20T01:05:36;18.90;;;8.30;;
73150;SDS011;61354;50.758;6.106;2022-11-20T01:08:02;18.10;;;8.93;;
73150;SDS011;61354;50.758;6.106;2022-11-20T01:10:27;17.77;;;8.48;;
73150;SDS011;61354;50.758;6.106;2022-11-20T01:12:53;19.55;;;8.50;;
73150;SDS011;61354;50.758;6.106;2022-11-20T01:15:38;15.80;;;7.90;;
73150;SDS011;61354;50.758;6.106;2022-11-20T01:18:03;18.40;;;8.95;;
73150;SDS011;61354;50.758;6.106;2022-11-20T01:20:33;16.48;;;7.68;;
73150;SDS011;61354;50.758;6.106;2022-11-20T01:22:59;18.30;;;9.35;;
73150;SDS011;61354;50.758;6.106;2022-11-20T01:25:25;17.50;;;8.63;;
73150;SDS011;61354;50.758;6.106;2022-11-20T01:27:50;17.58;;;8.75;;
73150;SDS011;61354;50.758;6.106;2022-11-20T01:30:16;19.20;;;8.63;;
73150;SDS011;61354;50.758;6.106;2022-11-20T01:32:41;19.60;;;8.95;;
73150;SDS011;61354;50.758;6.106;2022-11-20T01:35:07;17.08;;;8.98;;
73150;SDS011;61354;50.758;6.106;2022-11-20T01:37:34;17.95;;;8.40;;
73150;SDS011;61354;50.758;6.106;2022-11-20T01:40:00;18.23;;;8.85;;
73150;SDS011;61354;50.758;6.106;2022-11-20T01:42:25;17.75;;;9.23;;
73150;SDS011;61354;50.758;6.106;2022-11-20T01:48:13;16.90;;;8.70;;
73150;SDS011;61354;50.758;6.106;2022-11-20T01:50:39;18.45;;;8.57;;
73150;SDS011;61354;50.758;6.106;2022-11-20T01:53:08;20.88;;;9.45;;
73150;SDS011;61354;50.758;6.106;2022-11-20T01:55:39;19.67;;;9.55;;
73150;SDS011;61354;50.758;6.106;2022-11-20T01:58:17;18.60;;;8.70;;
73150;SDS011;61354;50.758;6.106;2022-11-20T02:00:48;18.00;;;8.45;;
73150;SDS011;61354;50.758;6.106;2022-11-20T02:03:15;20.83;;;8.90;;
73150;SDS011;61354;50.758;6.106;2022-11-20T02:08:28;20.48;;;8.27;;
73150;SDS011;61354;50.758;6.106;2022-11-20T02:10:55;19.35;;;8.18;;
73150;SDS011;61354;50.758;6.106;2022-11-20T02:13:20;17.42;;;7.90;;
73150;SDS011;61354;50.758;6.106;2022-11-20T02:16:05;18.15;;;8.55;;
73150;SDS011;61354;50.758;6.106;2022-11-20T02:18:33;19.92;;;9.23;;
73150;SDS011;61354;50.758;6.106;2022-11-20T02:21:34;18.63;;;8.65;;
73150;SDS011;61354;50.758;6.106;2022-11-20T02:26:30;18.27;;;8.02;;
73150;SDS011;61354;50.758;6.106;2022-11-20T02:28:58;17.98;;;8.07;;
73150;SDS011;61354;50.758;6.106;2022-11-20T02:31:26;20.20;;;8.50;;
73150;SDS011;61354;50.758;6.106;2022-11-20T02:33:57;20.88;;;8.88;;
73150;SDS011;61354;50.758;6.106;2022-11-20T02:36:23;16.27;;;8.32;;
73150;SDS011;61354;50.758;6.106;2022-11-20T02:38:51;19.95;;;9.13;;
73150;SDS011;61354;50.758;6.106;2022-11-20T02:41:16;16.48;;;7.93;;
73150;SDS011;61354;50.758;6.106;2022-11-20T02:43:41;16.20;;;7.63;;
73150;SDS011;61354;50.758;6.106;2022-11-20T02:46:07;15.25;;;7.50;;
73150;SDS011;61354;50.758;6.106;2022-11-20T02:48:33;16.90;;;7.63;;
73150;SDS011;61354;50.758;6.106;2022-11-20T02:50:59;16.35;;;7.05;;
73150;SDS011;61354;50.758;6.106;2022-11-20T02:53:25;17.67;;;7.82;;
73150;SDS011;61354;50.758;6.106;2022-11-20T02:55:50;18.52;;;7.70;;
73150;SDS011;61354;50.758;6.106;2022-11-20T02:58:15;15.93;;;6.97;;
73150;SDS011;61354;50.758;6.106;2022-11-20T03:00:41;15.27;;;7.43;;
73150;SDS011;61354;50.758;6.106;2022-11-20T03:03:06;16.33;;;7.07;;
73150;SDS011;61354;50.758;6.106;2022-11-20T03:05:32;16.42;;;7.43;;
73150;SDS011;61354;50.758;6.106;2022-11-20T03:07:57;17.38;;;7.13;;
73150;SDS011;61354;50.758;6.106;2022-11-20T03:10:23;16.58;;;7.55;;
73150;SDS011;61354;50.758;6.106;2022-11-20T03:12:52;17.20;;;6.95;;
73150;SDS011;61354;50.758;6.106;2022-11-20T03:15:21;18.20;;;7.47;;
73150;SDS011;61354;50.758;6.106;2022-11-20T03:17:48;18.52;;;7.65;;
73150;SDS011;61354;50.758;6.106;2022-11-20T03:20:13;14.88;;;6.85;;
73150;SDS011;61354;50.758;6.106;2022-11-20T03:22:39;16.67;;;7.55;;
73150;SDS011;61354;50.758;6.106;2022-11-20T03:25:04;17.20;;;7.00;;
73150;SDS011;61354;50.758;6.106;2022-11-20T03:27:33;15.00;;;7.40;;
73150;SDS011;61354;50.758;6.106;2022-11-20T03:30:00;15.98;;;7.20;;
73150;SDS011;61354;50.758;6.106;2022-11-20T03:32:25;15.63;;;6.82;;
73150;SDS011;61354;50.758;6.106;2022-11-20T03:34:51;17.95;;;7.43;;
73150;SDS011;61354;50.758;6.106;2022-11-20T03:37:16;13.43;;;6.70;;
73150;SDS011;61354;50.758;6.106;2022-11-20T03:39:42;13.27;;;6.60;;
73150;SDS011;61354;50.758;6.106;2022-11-20T03:42:08;11.68;;;5.68;;
73150;SDS011;61354;50.758;6.106;2022-11-20T03:44:53;17.10;;;7.70;;
73150;SDS011;61354;50.758;6.106;2022-11-20T03:47:19;16.27;;;6.88;;
73150;SDS011;61354;50.758;6.106;2022-11-20T03:49:44;14.30;;;7.03;;
73150;SDS011;61354;50.758;6.106;2022-11-20T03:52:09;17.75;;;7.43;;
73150;SDS011;61354;50.758;6.106;2022-11-20T03:54:35;17.45;;;7.82;;
73150;SDS011;61354;50.758;6.106;2022-11-20T03:57:00;16.77;;;7.45;;
73150;SDS011;61354;50.758;6.106;2022-11-20T03:59:26;19.13;;;8.13;;
73150;SDS011;61354;50.758;6.106;2022-11-20T04:01:51;17.25;;;7.68;;
73150;SDS011;61354;50.758;6.106;2022-11-20T04:04:17;18.83;;;8.95;;
73150;SDS011;61354;50.758;6.106;2022-11-20T04:06:42;20.48;;;9.13;;
73150;SDS011;61354;50.758;6.106;2022-11-20T04:09:07;21.42;;;8.85;;
73150;SDS011;61354;50.758;6.106;2022-11-20T04:11:34;19.27;;;8.40;;
73150;SDS011;61354;50.758;6.106;2022-11-20T04:14:02;15.95;;;7.47;;
73150;SDS011;61354;50.758;6.106;2022-11-20T04:16:30;24.17;;;10.15;;
73150;SDS011;61354;50.758;6.106;2022-11-20T04:18:58;24.25;;;9.63;;
73150;SDS011;61354;50.758;6.106;2022-11-20T04:21:25;20.63;;;9.32;;
73150;SDS011;61354;50.758;6.106;2022-11-20T04:23:51;19.60;;;9.15;;
73150;SDS011;61354;50.758;6.106;2022-11-20T04:26:21;24.75;;;8.90;;
73150;SDS011;61354;50.758;6.106;2022-11-20T04:28:48;21.13;;;9.27;;
73150;SDS011;61354;50.758;6.106;2022-11-20T04:31:14;22.15;;;8.65;;
73150;SDS011;61354;50.758;6.106;2022-11-20T04:33:41;21.08;;;9.13;;
73150;SDS011;61354;50.758;6.106;2022-11-20T04:36:09;20.77;;;8.65;;
73150;SDS011;61354;50.758;6.106;2022-11-20T04:38:36;21.33;;;9.43;;
73150;SDS011;61354;50.758;6.106;2022-11-20T04:41:02;22.92;;;10.15;;
73150;SDS011;61354;50.758;6.106;2022-11-20T04:43:29;17.73;;;8.27;;
73150;SDS011;61354;50.758;6.106;2022-11-20T04:45:56;20.13;;;8.35;;
73150;SDS011;61354;50.758;6.106;2022-11-20T04:48:22;22.38;;;8.25;;
73150;SDS011;61354;50.758;6.106;2022-11-20T04:50:48;18.77;;;9.10;;
73150;SDS011;61354;50.758;6.106;2022-11-20T04:53:13;17.73;;;9.27;;
73150;SDS011;61354;50.758;6.106;2022-11-20T04:55:39;18.60;;;8.55;;
73150;SDS011;61354;50.758;6.106;2022-11-20T04:58:05;20.52;;;8.93;;
73150;SDS011;61354;50.758;6.106;2022-11-20T05:00:30;18.48;;;9.85;;
73150;SDS011;61354;50.758;6.106;2022-11-20T05:02:56;20.85;;;10.35;;
73150;SDS011;61354;50.758;6.106;2022-11-20T05:05:21;22.15;;;9.80;;
73150;SDS011;61354;50.758;6.106;2022-11-20T05:07:47;20.58;;;10.20;;
73150;SDS011;61354;50.758;6.106;2022-11-20T05:10:12;21.17;;;10.02;;
73150;SDS011;61354;50.758;6.106;2022-11-20T05:12:38;22.45;;;9.85;;
73150;SDS011;61354;50.758;6.106;2022-11-20T05:15:03;24.17;;;9.43;;
73150;SDS011;61354;50.758;6.106;2022-11-20T05:17:29;24.40;;;9.70;;
73150;SDS011;61354;50.758;6.106;2022-11-20T05:19:54;22.33;;;9.75;;
73150;SDS011;61354;50.758;6.106;2022-11-20T05:22:19;23.92;;;10.20;;
73150;SDS011;61354;50.758;6.106;2022-11-20T05:24:45;22.75;;;10.32;;
73150;SDS011;61354;50.758;6.106;2022-11-20T05:27:10;23.80;;;10.07;;
73150;SDS011;61354;50.758;6.106;2022-11-20T05:29:36;23.48;;;10.40;;
73150;SDS011;61354;50.758;6.106;2022-11-20T05:32:01;30.10;;;11.68;;
73150;SDS011;61354;50.758;6.106;2022-11-20T05:34:27;25.90;;;11.35;;
73150;SDS011;61354;50.758;6.106;2022-11-20T05:36:52;26.88;;;10.73;;
73150;SDS011;61354;50.758;6.106;2022-11-20T05:39:18;31.30;;;11.27;;
73150;SDS011;61354;50.758;6.106;2022-11-20T05:41:43;26.95;;;10.30;;
73150;SDS011;61354;50.758;6.106;2022-11-20T05:44:11;27.25;;;11.45;;
73150;SDS011;61354;50.758;6.106;2022-11-20T05:46:37;20.45;;;8.70;;
73150;SDS011;61354;50.758;6.106;2022-11-20T05:49:02;26.20;;;11.10;;
73150;SDS011;61354;50.758;6.106;2022-11-20T05:51:28;21.45;;;9.88;;
73150;SDS011;61354;50.758;6.106;2022-11-20T05:53:57;21.45;;;10.40;;
73150;SDS011;61354;50.758;6.106;2022-11-20T05:56:23;24.85;;;10.57;;
73150;SDS011;61354;50.758;6.106;2022-11-20T05:58:49;23.00;;;10.65;;
73150;SDS011;61354;50.758;6.106;2022-11-20T06:01:33;20.25;;;10.20;;
73150;SDS011;61354;50.758;6.106;2022-11-20T06:03:58;24.42;;;11.00;;
73150;SDS011;61354;50.758;6.106;2022-11-20T06:06:24;23.08;;;9.52;;
73150;SDS011;61354;50.758;6.106;2022-11-20T06:08:51;21.20;;;10.00;;
73150;SDS011;61354;50.758;6.106;2022-11-20T06:11:16;24.33;;;9.57;;
73150;SDS011;61354;50.758;6.106;2022-11-20T06:13:43;18.75;;;8.82;;
73150;SDS011;61354;50.758;6.106;2022-11-20T06:16:09;18.92;;;8.70;;
73150;SDS011;61354;50.758;6.106;2022-11-20T06:18:35;19.80;;;8.77;;
73150;SDS011;61354;50.758;6.106;2022-11-20T06:21:02;19.83;;;8.15;;
73150;SDS011;61354;50.758;6.106;2022-11-20T06:23:33;21.00;;;8.63;;
73150;SDS011;61354;50.758;6.106;2022-11-20T06:26:03;19.15;;;8.43;;
73150;SDS011;61354;50.758;6.106;2022-11-20T06:28:36;15.30;;;6.82;;
73150;SDS011;61354;50.758;6.106;2022-11-20T06:31:02;16.80;;;8.38;;
73150;SDS011;61354;50.758;6.106;2022-11-20T06:33:28;16.85;;;7.40;;
73150;SDS011;61354;50.758;6.106;2022-11-20T06:36:00;13.55;;;7.15;;
73150;SDS011;61354;50.758;6.106;2022-11-20T06:38:26;16.45;;;7.53;;
73150;SDS011;61354;50.758;6.106;2022-11-20T06:40:53;15.55;;;7.55;;
73150;SDS011;61354;50.758;6.106;2022-11-20T06:43:18;13.88;;;7.20;;
73150;SDS011;61354;50.758;6.106;2022-11-20T06:45:44;13.73;;;7.60;;
73150;SDS011;61354;50.758;6.106;2022-11-20T06:48:09;16.30;;;7.40;;
73150;SDS011;61354;50.758;6.106;2022-11-20T06:50:38;16.58;;;7.63;;
73150;SDS011;61354;50.758;6.106;2022-11-20T06:55:30;14.75;;;6.38;;
73150;SDS011;61354;50.758;6.106;2022-11-20T06:57:56;14.77;;;7.05;;
73150;SDS011;61354;50.758;6.106;2022-11-20T07:00:22;15.43;;;7.35;;
73150;SDS011;61354;50.758;6.106;2022-11-20T07:02:47;16.92;;;7.07;;
73150;SDS011;61354;50.758;6.106;2022-11-20T07:05:13;15.88;;;7.78;;
73150;SDS011;61354;50.758;6.106;2022-11-20T07:07:38;15.52;;;7.60;;
73150;SDS011;61354;50.758;6.106;2022-11-20T07:10:04;13.13;;;6.78;;
73150;SDS011;61354;50.758;6.106;2022-11-20T07:12:30;13.50;;;6.40;;
73150;SDS011;61354;50.758;6.106;2022-11-20T07:14:55;13.70;;;6.47;;
73150;SDS011;61354;50.758;6.106;2022-11-20T07:17:21;16.25;;;6.65;;
73150;SDS011;61354;50.758;6.106;2022-11-20T07:19:46;13.82;;;7.65;;
73150;SDS011;61354;50.758;6.106;2022-11-20T07:22:12;13.25;;;6.90;;
73150;SDS011;61354;50.758;6.106;2022-11-20T07:24:38;13.15;;;6.85;;
73150;SDS011;61354;50.758;6.106;2022-11-20T07:27:04;13.05;;;6.60;;
73150;SDS011;61354;50.758;6.106;2022-11-20T07:29:29;16.30;;;8.07;;
73150;SDS011;61354;50.758;6.106;2022-11-20T07:31:55;15.02;;;7.22;;
73150;SDS011;61354;50.758;6.106;2022-11-20T07:34:21;13.07;;;6.57;;
73150;SDS011;61354;50.758;6.106;2022-11-20T07:36:46;13.98;;;6.90;;
73150;SDS011;61354;50.758;6.106;2022-11-20T07:39:12;14.98;;;6.68;;
73150;SDS011;61354;50.758;6.106;2022-11-20T07:41:37;14.60;;;7.28;;
73150;SDS011;61354;50.758;6.106;2022-11-20T07:44:03;15.23;;;7.72;;
73150;SDS011;61354;50.758;6.106;2022-11-20T07:46:28;15.95;;;7.55;;
73150;SDS011;61354;50.758;6.106;2022-11-20T07:48:53;13.40;;;7.15;;
73150;SDS011;61354;50.758;6.106;2022-11-20T07:51:19;15.77;;;8.13;;
73150;SDS011;61354;50.758;6.106;2022-11-20T07:53:44;14.32;;;7.25;;
73150;SDS011;61354;50.758;6.106;2022-11-20T07:56:10;16.80;;;8.10;;
73150;SDS011;61354;50.758;6.106;2022-11-20T07:58:35;15.63;;;8.05;;
73150;SDS011;61354;50.758;6.106;2022-11-20T08:01:05;15.50;;;7.68;;
73150;SDS011;61354;50.758;6.106;2022-11-20T08:03:31;14.88;;;7.50;;
73150;SDS011;61354;50.758;6.106;2022-11-20T08:06:00;14.57;;;7.35;;
73150;SDS011;61354;50.758;6.106;2022-11-20T08:08:26;13.75;;;7.32;;
73150;SDS011;61354;50.758;6.106;2022-11-20T08:10:52;13.85;;;7.72;;
73150;SDS011;61354;50.758;6.106;2022-11-20T08:13:17;15.48;;;7.70;;
73150;SDS011;61354;50.758;6.106;2022-11-20T08:16:01;15.93;;;7.43;;
73150;SDS011;61354;50.758;6.106;2022-11-20T08:18:26;15.05;;;7.50;;
73150;SDS011;61354;50.758;6.106;2022-11-20T08:20:52;15.00;;;7.70;;
73150;SDS011;61354;50.758;6.106;2022-11-20T08:23:17;15.07;;;7.65;;
73150;SDS011;61354;50.758;6.106;2022-11-20T08:25:43;15.52;;;7.85;;
73150;SDS011;61354;50.758;6.106;2022-11-20T08:28:09;15.75;;;7.32;;
73150;SDS011;61354;50.758;6.106;2022-11-20T08:30:35;13.60;;;7.32;;
73150;SDS011;61354;50.758;6.106;2022-11-20T08:33:08;16.80;;;8.85;;
73150;SDS011;61354;50.758;6.106;2022-11-20T08:35:37;15.20;;;8.57;;
73150;SDS011;61354;50.758;6.106;2022-11-20T08:38:06;15.13;;;8.15;;
73150;SDS011;61354;50.758;6.106;2022-11-20T08:40:32;18.63;;;8.43;;
73150;SDS011;61354;50.758;6.106;2022-11-20T08:42:58;21.35;;;7.97;;
73150;SDS011;61354;50.758;6.106;2022-11-20T08:45:24;20.30;;;8.90;;
73150;SDS011;61354;50.758;6.106;2022-11-20T08:47:49;21.20;;;9.27;;
73150;SDS011;61354;50.758;6.106;2022-11-20T08:50:15;20.58;;;8.93;;
73150;SDS011;61354;50.758;6.106;2022-11-20T08:52:41;20.45;;;8.55;;
73150;SDS011;61354;50.758;6.106;2022-11-20T08:55:08;21.30;;;8.68;;
73150;SDS011;61354;50.758;6.106;2022-11-20T08:57:34;21.55;;;9.60;;
73150;SDS011;61354;50.758;6.106;2022-11-20T09:00:01;22.77;;;8.98;;
73150;SDS011;61354;50.758;6.106;2022-11-20T09:02:28;18.58;;;9.05;;
73150;SDS011;61354;50.758;6.106;2022-11-20T09:04:54;22.70;;;8.45;;
73150;SDS011;61354;50.758;6.106;2022-11-20T09:07:19;20.25;;;8.70;;
73150;SDS011;61354;50.758;6.106;2022-11-20T09:09:45;22.60;;;8.98;;
73150;SDS011;61354;50.758;6.106;2022-11-20T09:12:10;22.67;;;9.93;;
73150;SDS011;61354;50.758;6.106;2022-11-20T09:14:36;28.10;;;10.18;;
73150;SDS011;61354;50.758;6.106;2022-11-20T09:17:01;27.42;;;10.70;;
73150;SDS011;61354;50.758;6.106;2022-11-20T09:19:27;26.05;;;10.02;;
73150;SDS011;61354;50.758;6.106;2022-11-20T09:21:52;24.85;;;10.80;;
73150;SDS011;61354;50.758;6.106;2022-11-20T09:24:18;19.33;;;8.73;;
73150;SDS011;61354;50.758;6.106;2022-11-20T09:26:45;25.17;;;10.00;;
73150;SDS011;61354;50.758;6.106;2022-11-20T09:29:11;22.38;;;9.75;;
73150;SDS011;61354;50.758;6.106;2022-11-20T09:31:36;22.45;;;10.05;;
73150;SDS011;61354;50.758;6.106;2022-11-20T09:34:02;25.73;;;9.63;;
73150;SDS011;61354;50.758;6.106;2022-11-20T09:36:27;22.85;;;9.13;;
73150;SDS011;61354;50.758;6.106;2022-11-20T09:38:53;21.98;;;9.43;;
73150;SDS011;61354;50.758;6.106;2022-11-20T09:47:02;26.27;;;10.07;;
73150;SDS011;61354;50.758;6.106;2022-11-20T09:53:04;22.25;;;9.70;;
73150;SDS011;61354;50.758;6.106;2022-11-20T09:55:45;19.15;;;9.70;;
73150;SDS011;61354;50.758;6.106;2022-11-20T09:58:16;26.80;;;10.20;;
73150;SDS011;61354;50.758;6.106;2022-11-20T10:00:51;20.42;;;8.63;;
73150;SDS011;61354;50.758;6.106;2022-11-20T10:03:35;26.05;;;10.90;;
73150;SDS011;61354;50.758;6.106;2022-11-20T10:06:08;20.25;;;8.88;;
73150;SDS011;61354;50.758;6.106;2022-11-20T10:19:25;19.15;;;9.00;;
73150;SDS011;61354;50.758;6.106;2022-11-20T10:25:05;20.92;;;8.60;;
73150;SDS011;61354;50.758;6.106;2022-11-20T10:30:31;15.73;;;7.30;;
73150;SDS011;61354;50.758;6.106;2022-11-20T10:33:26;18.77;;;7.22;;
73150;SDS011;61354;50.758;6.106;2022-11-20T10:41:20;17.38;;;7.15;;
73150;SDS011;61354;50.758;6.106;2022-11-20T10:43:50;17.08;;;7.35;;
73150;SDS011;61354;50.758;6.106;2022-11-20T10:46:22;18.65;;;8.48;;
73150;SDS011;61354;50.758;6.106;2022-11-20T10:48:48;17.50;;;7.45;;
73150;SDS011;61354;50.758;6.106;2022-11-20T11:01:39;15.85;;;7.30;;
73150;SDS011;61354;50.758;6.106;2022-11-20T11:04:20;15.77;;;8.10;;
73150;SDS011;61354;50.758;6.106;2022-11-20T11:09:44;14.63;;;6.13;;
73150;SDS011;61354;50.758;6.106;2022-11-20T11:12:13;13.65;;;5.65;;
73150;SDS011;61354;50.758;6.106;2022-11-20T11:14:46;14.02;;;6.70;;
73150;SDS011;61354;50.758;6.106;2022-11-20T11:19:57;14.57;;;7.15;;
73150;SDS011;61354;50.758;6.106;2022-11-20T11:22:43;14.07;;;6.35;;
73150;SDS011;61354;50.758;6.106;2022-11-20T11:25:21;13.15;;;6.30;;
73150;SDS011;61354;50.758;6.106;2022-11-20T11:27:54;11.98;;;5.63;;
73150;SDS011;61354;50.758;6.106;2022-11-20T11:30:26;14.82;;;6.32;;
73150;SDS011;61354;50.758;6.106;2022-11-20T11:33:05;12.90;;;6.18;;
73150;SDS011;61354;50.758;6.106;2022-11-20T11:35:32;12.77;;;5.22;;
73150;SDS011;61354;50.758;6.106;2022-11-20T11:38:06;11.75;;;5.40;;
73150;SDS011;61354;50.758;6.106;2022-11-20T11:40:37;9.25;;;5.40;;
73150;SDS011;61354;50.758;6.106;2022-11-20T11:43:05;10.90;;;4.72;;
73150;SDS011;61354;50.758;6.106;2022-11-20T11:45:53;10.10;;;5.20;;
73150;SDS011;61354;50.758;6.106;2022-11-20T11:48:19;10.50;;;4.90;;
73150;SDS011;61354;50.758;6.106;2022-11-20T11:50:49;12.35;;;5.35;;
73150;SDS011;61354;50.758;6.106;2022-11-20T11:53:17;10.20;;;4.95;;
73150;SDS011;61354;50.758;6.106;2022-11-20T11:55:53;8.70;;;5.13;;
73150;SDS011;61354;50.758;6.106;2022-11-20T12:01:07;10.70;;;4.72;;
73150;SDS011;61354;50.758;6.106;2022-11-20T12:04:17;9.15;;;4.72;;
73150;SDS011;61354;50.758;6.106;2022-11-20T12:06:45;10.90;;;4.72;;
73150;SDS011;61354;50.758;6.106;2022-11-20T12:09:16;7.10;;;3.75;;
73150;SDS011;61354;50.758;6.106;2022-11-20T12:11:46;8.02;;;3.53;;
73150;SDS011;61354;50.758;6.106;2022-11-20T12:14:27;7.22;;;3.72;;
73150;SDS011;61354;50.758;6.106;2022-11-20T12:16:56;11.18;;;4.70;;
73150;SDS011;61354;50.758;6.106;2022-11-20T12:19:22;8.93;;;3.70;;
73150;SDS011;61354;50.758;6.106;2022-11-20T12:30:26;7.15;;;3.33;;
73150;SDS011;61354;50.758;6.106;2022-11-20T12:49:37;6.75;;;2.33;;
73150;SDS011;61354;50.758;6.106;2022-11-20T12:55:09;5.10;;;2.80;;
73150;SDS011;61354;50.758;6.106;2022-11-20T13:00:22;5.93;;;2.55;;
73150;SDS011;61354;50.758;6.106;2022-11-20T13:03:13;7.13;;;2.70;;
73150;SDS011;61354;50.758;6.106;2022-11-20T13:08:39;12.07;;;6.20;;
73150;SDS011;61354;50.758;6.106;2022-11-20T13:19:14;4.45;;;2.63;;
73150;SDS011;61354;50.758;6.106;2022-11-20T13:21:42;6.03;;;2.13;;
73150;SDS011;61354;50.758;6.106;2022-11-20T13:29:26;4.38;;;2.03;;
73150;SDS011;61354;50.758;6.106;2022-11-20T13:32:00;3.67;;;1.80;;
73150;SDS011;61354;50.758;6.106;2022-11-20T13:34:28;3.38;;;1.45;;
73150;SDS011;61354;50.758;6.106;2022-11-20T13:36:56;4.53;;;1.75;;
73150;SDS011;61354;50.758;6.106;2022-11-20T13:39:26;4.68;;;1.50;;
73150;SDS011;61354;50.758;6.106;2022-11-20T13:41:56;4.18;;;2.00;;
73150;SDS011;61354;50.758;6.106;2022-11-20T13:46:57;4.40;;;2.33;;
73150;SDS011;61354;50.758;6.106;2022-11-20T13:49:31;4.15;;;1.80;;
73150;SDS011;61354;50.758;6.106;2022-11-20T13:52:20;3.70;;;1.67;;
73150;SDS011;61354;50.758;6.106;2022-11-20T13:57:52;3.88;;;1.38;;
73150;SDS011;61354;50.758;6.106;2022-11-20T14:00:21;2.58;;;1.35;;
73150;SDS011;61354;50.758;6.106;2022-11-20T14:02:57;3.65;;;1.30;;
73150;SDS011;61354;50.758;6.106;2022-11-20T14:05:27;3.15;;;1.40;;
73150;SDS011;61354;50.758;6.106;2022-11-20T14:07:55;4.38;;;1.40;;
73150;SDS011;61354;50.758;6.106;2022-11-20T14:10:27;2.92;;;1.33;;
73150;SDS011;61354;50.758;6.106;2022-11-20T14:12:53;2.55;;;1.25;;
73150;SDS011;61354;50.758;6.106;2022-11-20T14:15:26;3.65;;;1.40;;
73150;SDS011;61354;50.758;6.106;2022-11-20T14:17:59;3.30;;;1.20;;
73150;SDS011;61354;50.758;6.106;2022-11-20T14:20:37;3.80;;;0.90;;
73150;SDS011;61354;50.758;6.106;2022-11-20T14:23:03;2.10;;;1.10;;
73150;SDS011;61354;50.758;6.106;2022-11-20T14:25:30;4.70;;;1.20;;
73150;SDS011;61354;50.758;6.106;2022-11-20T14:28:00;3.10;;;1.17;;
73150;SDS011;61354;50.758;6.106;2022-11-20T14:30:28;2.55;;;1.23;;
73150;SDS011;61354;50.758;6.106;2022-11-20T14:33:04;4.30;;;1.88;;
73150;SDS011;61354;50.758;6.106;2022-11-20T14:35:30;2.25;;;1.33;;
73150;SDS011;61354;50.758;6.106;2022-11-20T14:38:00;1.88;;;1.10;;
73150;SDS011;61354;50.758;6.106;2022-11-20T14:40:28;2.97;;;1.25;;
73150;SDS011;61354;50.758;6.106;2022-11-20T14:43:04;2.95;;;1.42;;
73150;SDS011;61354;50.758;6.106;2022-11-20T14:45:50;5.00;;;2.28;;
73150;SDS011;61354;50.758;6.106;2022-11-20T14:48:23;2.30;;;1.50;;
73150;SDS011;61354;50.758;6.106;2022-11-20T14:50:53;4.00;;;1.55;;
73150;SDS011;61354;50.758;6.106;2022-11-20T14:53:22;2.70;;;1.27;;
73150;SDS011;61354;50.758;6.106;2022-11-20T14:55:54;5.32;;;2.67;;
73150;SDS011;61354;50.758;6.106;2022-11-20T14:58:22;5.25;;;2.40;;
73150;SDS011;61354;50.758;6.106;2022-11-20T15:00:56;4.32;;;2.00;;
73150;SDS011;61354;50.758;6.106;2022-11-20T15:03:34;4.18;;;1.88;;
73150;SDS011;61354;50.758;6.106;2022-11-20T15:06:06;4.18;;;1.48;;
73150;SDS011;61354;50.758;6.106;2022-11-20T15:08:35;3.88;;;1.75;;
73150;SDS011;61354;50.758;6.106;2022-11-20T15:11:00;4.45;;;2.22;;
73150;SDS011;61354;50.758;6.106;2022-11-20T15:15:53;6.70;;;2.60;;
73150;SDS011;61354;50.758;6.106;2022-11-20T15:20:53;4.78;;;2.85;;
73150;SDS011;61354;50.758;6.106;2022-11-20T15:23:20;3.33;;;1.73;;
73150;SDS011;61354;50.758;6.106;2022-11-20T15:25:46;4.35;;;1.92;;
73150;SDS011;61354;50.758;6.106;2022-11-20T15:28:19;3.80;;;2.17;;
73150;SDS011;61354;50.758;6.106;2022-11-20T15:30:47;4.13;;;1.90;;
73150;SDS011;61354;50.758;6.106;2022-11-20T15:33:15;6.97;;;3.97;;
73150;SDS011;61354;50.758;6.106;2022-11-20T15:35:41;3.60;;;2.80;;
73150;SDS011;61354;50.758;6.106;2022-11-20T15:38:07;5.43;;;2.80;;
73150;SDS011;61354;50.758;6.106;2022-11-20T15:40:33;8.88;;;6.75;;
73150;SDS011;61354;50.758;6.106;2022-11-20T15:42:58;118.05;;;105.07;;
73150;SDS011;61354;50.758;6.106;2022-11-20T15:45:36;53.95;;;47.50;;
73150;SDS011;61354;50.758;6.106;2022-11-20T15:48:04;237.63;;;184.77;;
73150;SDS011;61354;50.758;6.106;2022-11-20T15:50:39;385.13;;;278.83;;
73150;SDS011;61354;50.758;6.106;2022-11-20T15:53:28;270.60;;;203.65;;
73150;SDS011;61354;50.758;6.106;2022-11-20T15:55:53;37.38;;;20.45;;
73150;SDS011;61354;50.758;6.106;2022-11-20T15:58:19;4.05;;;2.10;;
73150;SDS011;61354;50.758;6.106;2022-11-20T16:00:45;4.68;;;3.38;;
73150;SDS011;61354;50.758;6.106;2022-11-20T16:03:11;3.80;;;3.00;;
73150;SDS011;61354;50.758;6.106;2022-11-20T16:05:37;3.35;;;2.55;;
73150;SDS011;61354;50.758;6.106;2022-11-20T16:08:03;2.40;;;1.75;;
73150;SDS011;61354;50.758;6.106;2022-11-20T16:10:29;3.00;;;1.92;;
73150;SDS011;61354;50.758;6.106;2022-11-20T16:12:54;4.15;;;2.72;;
73150;SDS011;61354;50.758;6.106;2022-11-20T16:15:38;3.67;;;1.80;;
73150;SDS011;61354;50.758;6.106;2022-11-20T16:18:21;2.63;;;1.80;;
73150;SDS011;61354;50.758;6.106;2022-11-20T16:20:48;3.35;;;1.50;;
73150;SDS011;61354;50.758;6.106;2022-11-20T16:23:16;4.88;;;3.35;;
73150;SDS011;61354;50.758;6.106;2022-11-20T16:25:42;2.67;;;1.70;;
73150;SDS011;61354;50.758;6.106;2022-11-20T16:28:08;1.42;;;1.02;;
73150;SDS011;61354;50.758;6.106;2022-11-20T16:30:34;1.70;;;0.82;;
73150;SDS011;61354;50.758;6.106;2022-11-20T16:33:00;1.52;;;1.05;;
73150;SDS011;61354;50.758;6.106;2022-11-20T16:35:27;1.33;;;0.93;;
73150;SDS011;61354;50.758;6.106;2022-11-20T16:37:54;3.70;;;1.10;;
73150;SDS011;61354;50.758;6.106;2022-11-20T16:40:20;0.88;;;0.80;;
73150;SDS011;61354;50.758;6.106;2022-11-20T16:42:46;2.42;;;1.10;;
73150;SDS011;61354;50.758;6.106;2022-11-20T16:45:12;1.85;;;0.90;;